Dauphin Airport, Manitoba

Past 24 Hour Conditions

Date / Time
(CST)
Conditions Temp
(°F)
Humidity
(%)
Dew Point
(°F)
Wind
(mph)
Pressure
(inches)
Vis
(mi)
Wind Chill
25 November 2014
14:00 Light Snow 4   83 0 N 9 30.1 10 -11
13:00 Light Snow 8 83 3 NNE 11 30.1 9 -8
12:00 Light Snow 10 80 5 ENE 9 30.1 4 -3
11:00 Light Snow 10 85 6 NE 10 30.1 2 -4
10:00 Light Snow 10 85 6 NE 9 30.1 2 -4
9:00 Light Snow 10 88 7 NE 9 30.1 2 -3
8:00 Light Snow 10 87 7 NE 6 30.0 10 1
7:00 Light Snow 10 87 7 NE 6 30.0 6 1
6:00 Light Snow 11 87 8 NE 6 30.0 3 1
5:00 Light Snow 12 83 8 NE 3 30.0 10 6
4:00 Light Snow 12 81 7 NE 5 30.0 10 4
3:00 Light Snow 13 82 8 ENE 6 30.0 10 4
2:00 Light Snow 13 80 8 NNE 8 30.0 10 2
1:00 Cloudy 14 79 9 NE 3 30.0 10 9
00:00 Cloudy 15 82 10 NNW 5 30.0 10 7
24 November 2014
23:00 Cloudy 16   81 11 NW 8 30.0 10 5
22:00 Cloudy 15 83 11 WNW 13 30.0 10 1
21:00 Partly Cloudy 14 85 10 WNW 11 gust 17 30.0 10 0
20:00 Clear 13 83 9 W 15 30.0 10 -3
19:00 Mainly Clear 11 82 7 W 9 30.0 10 -2
18:00 Mostly Cloudy 14 73 7 W 15 30.0 10 -2
17:00 Mostly Cloudy 12 70 4 W 8 30.0 10 1
16:00 Sunny 12 67 3 W 9 30.0 10 -1
15:00 Cloudy 15 64 5 W 10 30.0 10 2
14:00 Cloudy 14 59 2 W 11 30.0 10 0
N/A Not available
↑ Highest temperature
↓ Lowest temperature
* Value not significant.

If you require additional historical weather information, please visit Climate Data Online.

Date modified: